Time;durP1;ratioP1;P1;durP2;ratioP2;P2;SDS_P1;SDS_P2;PMS_P1;PMS_P2;Temp;Humidity;BMP_temperature;BMP_pressure;BME280_temperature;BME280_humidity;BME280_pressure;Samples;Min_cycle;Max_cycle;Signal;HPM_P1;HPM_P2
2023/07/26 00:00:55;;;;;;;0.10;0.10;;;14.30;99.90;;;;;;5091537;28;20071;-87
2023/07/26 00:03:21;;;;;;;0.10;0.10;;;14.30;99.90;;;;;;5093378;28;20055;-85
2023/07/26 00:05:47;;;;;;;0.20;0.20;;;14.20;99.90;;;;;;5091044;28;20036;-85
2023/07/26 00:08:14;;;;;;;0.20;0.20;;;14.20;99.90;;;;;;5093612;28;20081;-85
2023/07/26 00:10:45;;;;;;;0.10;0.10;;;14.20;99.90;;;;;;5099748;28;20180;-85
2023/07/26 00:13:10;;;;;;;0.20;0.20;;;14.20;99.90;;;;;;5072863;28;20121;-85
2023/07/26 00:15:36;;;;;;;0.10;0.10;;;14.20;99.90;;;;;;5073834;28;20094;-85
2023/07/26 00:18:02;;;;;;;0.17;0.17;;;14.20;99.90;;;;;;5080877;28;20047;-86
2023/07/26 00:20:27;;;;;;;0.20;0.20;;;14.20;99.90;;;;;;5091144;28;20040;-85
2023/07/26 00:22:53;;;;;;;0.10;0.10;;;14.20;99.90;;;;;;5088855;28;20040;-85
2023/07/26 00:25:19;;;;;;;0.10;0.10;;;14.20;99.90;;;;;;5087325;28;20047;-85
2023/07/26 00:27:44;;;;;;;0.10;0.10;;;14.20;99.90;;;;;;5122564;27;20035;-86
2023/07/26 00:30:11;;;;;;;0.20;0.20;;;14.20;99.90;;;;;;5081922;28;20098;-85
2023/07/26 00:32:36;;;;;;;0.10;0.10;;;14.20;99.90;;;;;;5105086;28;20621;-85
2023/07/26 00:35:03;;;;;;;0.10;0.10;;;14.20;99.90;;;;;;5089071;28;20097;-85
2023/07/26 00:37:28;;;;;;;0.17;0.17;;;14.20;99.90;;;;;;5085719;28;20059;-85
2023/07/26 00:39:54;;;;;;;0.15;0.15;;;14.20;99.90;;;;;;5081391;28;20045;-85
2023/07/26 00:42:19;;;;;;;0.15;0.15;;;14.20;99.90;;;;;;5086977;28;20119;-86
2023/07/26 00:44:45;;;;;;;0.20;0.20;;;14.20;99.90;;;;;;5088220;28;20480;-85
2023/07/26 00:47:11;;;;;;;0.10;0.10;;;14.20;99.90;;;;;;5090925;28;20458;-86
2023/07/26 00:49:37;;;;;;;0.15;0.15;;;14.20;99.90;;;;;;5090610;28;20602;-86
2023/07/26 00:52:03;;;;;;;0.13;0.13;;;14.20;99.90;;;;;;5087832;28;20048;-85
2023/07/26 00:54:29;;;;;;;0.10;0.10;;;14.20;99.90;;;;;;5086204;28;20441;-86
2023/07/26 00:56:55;;;;;;;0.10;0.10;;;14.20;99.90;;;;;;5090669;28;20040;-86
2023/07/26 00:59:20;;;;;;;0.10;0.10;;;14.30;99.90;;;;;;5087523;28;20399;-85
2023/07/26 01:01:46;;;;;;;0.10;0.10;;;14.20;99.90;;;;;;5108372;27;20048;-85
2023/07/26 01:04:12;;;;;;;0.10;0.10;;;14.20;99.90;;;;;;5091456;28;20136;-85
2023/07/26 01:07:08;;;;;;;0.10;0.10;;;14.30;99.90;;;;;;5083615;28;20051;-86
2023/07/26 01:09:48;;;;;;;0.10;0.10;;;14.20;99.90;;;;;;5078107;28;20044;-85
2023/07/26 01:12:19;;;;;;;0.10;0.10;;;14.20;99.90;;;;;;5089500;28;20055;-84
2023/07/26 01:14:57;;;;;;;0.15;0.15;;;14.30;99.90;;;;;;5093277;28;20067;-85
2023/07/26 01:17:23;;;;;;;0.20;0.20;;;14.30;99.90;;;;;;5082877;28;20388;-84
2023/07/26 01:19:49;;;;;;;0.20;0.20;;;14.20;99.90;;;;;;5078382;28;20032;-86
2023/07/26 01:22:14;;;;;;;0.20;0.20;;;14.30;99.90;;;;;;5089474;28;20117;-84
2023/07/26 01:24:40;;;;;;;0.10;0.10;;;14.20;99.90;;;;;;5077649;28;20036;-85
2023/07/26 01:27:06;;;;;;;0.10;0.10;;;14.30;99.90;;;;;;5089772;28;20119;-85
2023/07/26 01:29:32;;;;;;;0.10;0.10;;;14.20;99.90;;;;;;5086756;28;20602;-85
2023/07/26 01:31:58;;;;;;;0.10;0.10;;;14.20;99.90;;;;;;5086354;28;20399;-85
2023/07/26 01:34:24;;;;;;;0.10;0.10;;;14.20;99.90;;;;;;5086212;28;20055;-83
2023/07/26 01:36:52;;;;;;;0.10;0.10;;;14.20;99.90;;;;;;5081457;28;20082;-84
2023/07/26 01:39:18;;;;;;;0.20;0.20;;;14.20;99.90;;;;;;5081681;28;20392;-85
2023/07/26 01:41:46;;;;;;;0.10;0.10;;;14.20;99.90;;;;;;5082988;28;20039;-84
2023/07/26 01:44:12;;;;;;;0.10;0.10;;;14.20;99.90;;;;;;5084922;28;20040;-83
2023/07/26 01:46:38;;;;;;;0.20;0.20;;;14.20;99.90;;;;;;5093473;28;20059;-84
2023/07/26 01:49:04;;;;;;;0.10;0.10;;;14.10;99.90;;;;;;5094232;28;20510;-85
2023/07/26 01:51:29;;;;;;;0.17;0.17;;;14.10;99.90;;;;;;5090050;28;20126;-84
2023/07/26 01:53:55;;;;;;;0.20;0.20;;;14.10;99.90;;;;;;5088685;28;20052;-84
2023/07/26 01:56:21;;;;;;;0.10;0.10;;;14.10;99.90;;;;;;5089938;28;20052;-84
2023/07/26 01:58:47;;;;;;;0.17;0.17;;;14.00;99.90;;;;;;5087870;28;20063;-84
2023/07/26 02:01:12;;;;;;;0.10;0.10;;;14.00;99.90;;;;;;5088495;28;20407;-85
2023/07/26 02:03:38;;;;;;;0.10;0.10;;;14.00;99.90;;;;;;5081317;28;20044;-85
2023/07/26 02:06:04;;;;;;;0.10;0.10;;;13.90;99.90;;;;;;5070081;28;20512;-84
2023/07/26 02:08:29;;;;;;;0.20;0.20;;;13.90;99.90;;;;;;5069181;28;20560;-85
2023/07/26 02:10:55;;;;;;;0.10;0.10;;;13.90;99.90;;;;;;5085940;28;20037;-84
2023/07/26 02:13:21;;;;;;;0.10;0.10;;;13.90;99.90;;;;;;5069606;28;20040;-85
2023/07/26 02:15:46;;;;;;;0.10;0.10;;;13.90;99.90;;;;;;5069966;28;20109;-83
2023/07/26 02:18:12;;;;;;;0.20;0.20;;;13.90;99.90;;;;;;5078764;28;20048;-86
2023/07/26 02:20:38;;;;;;;0.17;0.17;;;13.90;99.90;;;;;;5079677;28;20076;-85
2023/07/26 02:23:04;;;;;;;0.10;0.10;;;13.80;99.90;;;;;;5077765;28;20040;-83
2023/07/26 02:25:30;;;;;;;0.10;0.10;;;13.80;99.90;;;;;;5090105;28;20093;-85
2023/07/26 02:27:56;;;;;;;0.10;0.10;;;13.80;99.90;;;;;;5078393;28;20048;-84
2023/07/26 02:30:21;;;;;;;0.10;0.10;;;13.70;99.90;;;;;;5071238;28;20041;-84
2023/07/26 02:32:47;;;;;;;0.10;0.10;;;13.70;99.90;;;;;;5071227;28;20049;-85
2023/07/26 02:35:13;;;;;;;0.10;0.10;;;13.70;99.90;;;;;;5086219;28;20058;-85
2023/07/26 02:37:38;;;;;;;0.10;0.10;;;13.70;99.90;;;;;;5102876;28;20052;-85
2023/07/26 02:40:04;;;;;;;0.15;0.15;;;13.70;99.90;;;;;;5087816;28;20046;-85
2023/07/26 02:42:30;;;;;;;0.20;0.20;;;13.60;99.90;;;;;;5086865;28;20081;-85
2023/07/26 02:44:56;;;;;;;0.10;0.10;;;13.60;99.90;;;;;;5088240;28;20040;-84
2023/07/26 02:47:21;;;;;;;0.10;0.10;;;13.60;99.90;;;;;;5083770;28;20117;-85
2023/07/26 02:49:47;;;;;;;0.13;0.13;;;13.60;99.90;;;;;;5084650;28;20041;-84
2023/07/26 02:52:13;;;;;;;0.10;0.10;;;13.60;99.90;;;;;;5070249;28;20052;-85
2023/07/26 02:54:39;;;;;;;0.20;0.20;;;13.60;99.90;;;;;;5069343;28;21512;-85
2023/07/26 02:57:05;;;;;;;0.10;0.10;;;13.60;99.90;;;;;;5079449;28;20155;-83
2023/07/26 02:59:31;;;;;;;0.20;0.20;;;13.60;99.90;;;;;;5099214;28;20456;-84
2023/07/26 03:01:56;;;;;;;0.10;0.10;;;13.60;99.90;;;;;;5087763;28;20087;-84
2023/07/26 03:04:22;;;;;;;0.10;0.10;;;13.60;99.90;;;;;;5075022;28;20044;-85
2023/07/26 03:06:50;;;;;;;0.10;0.10;;;13.50;99.90;;;;;;5069586;28;20114;-84
2023/07/26 03:09:15;;;;;;;0.10;0.10;;;13.60;99.90;;;;;;5070243;28;20041;-84
2023/07/26 03:11:41;;;;;;;0.10;0.10;;;13.50;99.90;;;;;;5087579;28;20562;-84
2023/07/26 03:14:07;;;;;;;0.10;0.10;;;13.50;99.90;;;;;;5089403;28;20083;-85
2023/07/26 03:16:32;;;;;;;0.13;0.13;;;13.50;99.90;;;;;;5077636;28;20051;-84
2023/07/26 03:18:58;;;;;;;0.15;0.15;;;13.50;99.90;;;;;;5079094;28;20047;-85
2023/07/26 03:21:24;;;;;;;0.10;0.10;;;13.50;99.90;;;;;;5074459;28;20094;-85
2023/07/26 03:23:51;;;;;;;0.15;0.15;;;13.40;99.90;;;;;;5078513;28;20036;-85
2023/07/26 03:26:16;;;;;;;0.10;0.10;;;13.40;99.90;;;;;;5084478;28;20119;-86
2023/07/26 03:28:42;;;;;;;0.15;0.15;;;13.40;99.90;;;;;;5072238;28;20136;-85
2023/07/26 03:31:08;;;;;;;0.10;0.10;;;13.40;99.90;;;;;;5078833;28;20143;-85
2023/07/26 03:33:33;;;;;;;0.10;0.10;;;13.40;99.90;;;;;;5114748;27;20040;-86
2023/07/26 03:35:59;;;;;;;0.10;0.10;;;13.40;99.90;;;;;;5082471;28;20055;-85
2023/07/26 03:38:25;;;;;;;0.20;0.20;;;13.40;99.90;;;;;;5105685;27;20044;-85
2023/07/26 03:40:51;;;;;;;0.10;0.10;;;13.40;99.90;;;;;;5105635;27;20086;-84
2023/07/26 03:43:16;;;;;;;0.10;0.10;;;13.40;99.90;;;;;;5112737;27;20048;-84
2023/07/26 03:45:42;;;;;;;0.20;0.20;;;13.50;99.90;;;;;;5072443;28;20160;-84
2023/07/26 03:48:08;;;;;;;0.10;0.10;;;13.40;99.90;;;;;;5090945;28;20032;-85
2023/07/26 03:50:34;;;;;;;0.20;0.20;;;13.50;99.90;;;;;;5085401;28;20050;-83
2023/07/26 03:52:59;;;;;;;0.20;0.20;;;13.40;99.90;;;;;;5097260;28;20089;-84
2023/07/26 03:55:25;;;;;;;0.15;0.15;;;13.50;99.90;;;;;;5087373;28;20048;-85
2023/07/26 03:57:51;;;;;;;0.10;0.10;;;13.50;99.90;;;;;;5084328;28;20060;-83
2023/07/26 04:00:17;;;;;;;0.10;0.10;;;13.50;99.90;;;;;;5089950;28;20105;-85
2023/07/26 04:02:42;;;;;;;0.10;0.10;;;13.40;99.90;;;;;;5094608;28;20048;-84
2023/07/26 04:05:08;;;;;;;0.10;0.10;;;13.50;99.90;;;;;;5091212;28;20458;-83
2023/07/26 04:07:39;;;;;;;0.10;0.10;;;13.40;99.90;;;;;;5086721;28;20757;-84
2023/07/26 04:10:05;;;;;;;0.10;0.10;;;13.50;99.90;;;;;;5083221;28;20474;-83
2023/07/26 04:12:31;;;;;;;0.10;0.10;;;13.40;99.90;;;;;;5077641;28;20047;-84
2023/07/26 04:14:57;;;;;;;0.10;0.10;;;13.40;99.90;;;;;;5083586;28;20044;-84
2023/07/26 04:17:22;;;;;;;0.10;0.10;;;13.50;99.90;;;;;;5072737;28;20079;-84
2023/07/26 04:19:48;;;;;;;0.10;0.10;;;13.50;99.90;;;;;;5070665;28;20048;-84
2023/07/26 04:22:14;;;;;;;0.10;0.10;;;13.50;99.90;;;;;;5070518;28;20476;-84
2023/07/26 04:24:44;;;;;;;0.10;0.10;;;13.50;99.90;;;;;;5072023;28;20185;-85
2023/07/26 04:27:10;;;;;;;0.10;0.10;;;13.50;99.90;;;;;;5073711;28;20051;-85
2023/07/26 04:29:35;;;;;;;0.15;0.15;;;13.50;99.90;;;;;;5089853;28;20031;-84
2023/07/26 04:32:01;;;;;;;0.20;0.20;;;13.50;99.90;;;;;;5077084;28;20048;-84
2023/07/26 04:34:27;;;;;;;0.10;0.10;;;13.50;99.90;;;;;;5075005;28;20555;-85
2023/07/26 04:36:52;;;;;;;0.10;0.10;;;13.50;99.90;;;;;;5072326;28;20044;-84
2023/07/26 04:39:18;;;;;;;0.20;0.20;;;13.50;99.90;;;;;;5071900;28;20067;-85
2023/07/26 04:41:44;;;;;;;0.10;0.10;;;13.50;99.90;;;;;;5072608;28;20391;-84
2023/07/26 04:44:09;;;;;;;0.10;0.10;;;13.50;99.90;;;;;;5084554;28;20044;-85
2023/07/26 04:46:35;;;;;;;0.20;0.20;;;13.50;99.90;;;;;;5082492;28;20114;-85
2023/07/26 04:49:01;;;;;;;0.17;0.17;;;13.40;99.90;;;;;;5071807;28;20041;-85
2023/07/26 04:51:27;;;;;;;0.10;0.10;;;13.50;99.90;;;;;;5075030;28;20045;-86
2023/07/26 04:53:52;;;;;;;0.20;0.20;;;13.40;99.90;;;;;;5075104;28;20102;-86
2023/07/26 04:56:18;;;;;;;0.10;0.10;;;13.50;99.90;;;;;;5085705;28;20062;-84
2023/07/26 04:58:44;;;;;;;0.20;0.20;;;13.50;99.90;;;;;;5089484;28;20040;-86
2023/07/26 05:01:10;;;;;;;0.15;0.15;;;13.50;99.90;;;;;;5086067;28;20502;-84
2023/07/26 05:03:38;;;;;;;0.10;0.10;;;13.50;99.90;;;;;;5085315;28;20441;-84
2023/07/26 05:06:03;;;;;;;0.13;0.13;;;13.50;99.90;;;;;;5088746;28;20055;-84
2023/07/26 05:08:29;;;;;;;0.20;0.20;;;13.50;99.90;;;;;;5071691;28;20033;-85
2023/07/26 05:10:55;;;;;;;0.20;0.20;;;13.50;99.90;;;;;;5117744;27;20040;-85
2023/07/26 05:13:22;;;;;;;0.10;0.10;;;13.50;99.90;;;;;;5087223;28;20554;-85
2023/07/26 05:15:48;;;;;;;0.10;0.10;;;13.60;99.90;;;;;;5075814;28;20063;-85
2023/07/26 05:18:14;;;;;;;0.10;0.10;;;13.60;99.90;;;;;;5079362;28;20040;-85
2023/07/26 05:20:41;;;;;;;0.20;0.20;;;13.70;99.90;;;;;;5112648;27;20067;-84
2023/07/26 05:23:07;;;;;;;0.10;0.10;;;13.70;99.90;;;;;;5085724;28;20044;-85
2023/07/26 05:25:32;;;;;;;0.10;0.10;;;13.80;99.90;;;;;;5083540;28;20043;-85
2023/07/26 05:27:58;;;;;;;0.15;0.15;;;13.80;99.90;;;;;;5090834;28;20046;-85
2023/07/26 05:30:24;;;;;;;0.10;0.10;;;13.90;99.90;;;;;;5091145;28;20043;-85
2023/07/26 05:32:49;;;;;;;0.10;0.10;;;14.00;99.90;;;;;;5090189;28;20052;-85
2023/07/26 05:35:15;;;;;;;0.17;0.17;;;14.00;99.90;;;;;;5092459;28;20590;-86
2023/07/26 05:37:41;;;;;;;0.10;0.10;;;14.10;99.90;;;;;;5091911;28;20039;-86
2023/07/26 05:40:07;;;;;;;0.20;0.20;;;14.10;99.90;;;;;;5090850;28;20157;-84
2023/07/26 05:42:35;;;;;;;0.10;0.10;;;14.20;99.90;;;;;;5091106;28;20044;-84
2023/07/26 05:45:00;;;;;;;0.10;0.10;;;14.30;99.90;;;;;;5088601;28;20821;-84
2023/07/26 05:47:26;;;;;;;0.10;0.10;;;14.30;99.90;;;;;;5089125;28;20063;-85
2023/07/26 05:49:52;;;;;;;0.10;0.10;;;14.30;99.90;;;;;;5089625;28;20427;-84
2023/07/26 05:52:18;;;;;;;0.13;0.13;;;14.30;99.90;;;;;;5085193;28;20097;-85
2023/07/26 05:54:43;;;;;;;0.10;0.10;;;14.30;99.90;;;;;;5070327;28;20075;-83
2023/07/26 05:57:10;;;;;;;0.10;0.10;;;14.30;99.90;;;;;;5080015;28;20569;-83
2023/07/26 05:59:35;;;;;;;0.20;0.20;;;14.30;99.90;;;;;;5070059;28;20127;-81
2023/07/26 06:02:01;;;;;;;0.10;0.10;;;14.30;99.90;;;;;;5087810;28;20127;-82
2023/07/26 06:04:31;;;;;;;0.10;0.10;;;14.30;99.90;;;;;;5090555;28;20059;-83
2023/07/26 06:06:57;;;;;;;0.10;0.10;;;14.30;99.90;;;;;;5079606;28;20074;-82
2023/07/26 06:09:23;;;;;;;0.10;0.10;;;14.30;99.90;;;;;;5078030;28;20389;-83
2023/07/26 06:11:49;;;;;;;0.10;0.10;;;14.30;99.90;;;;;;5080748;28;20044;-84
2023/07/26 06:14:14;;;;;;;0.10;0.10;;;14.30;99.90;;;;;;5072130;28;20060;-85
2023/07/26 06:16:40;;;;;;;0.20;0.20;;;14.30;99.90;;;;;;5088734;28;20113;-85
2023/07/26 06:19:06;;;;;;;0.20;0.20;;;14.30;99.90;;;;;;5103309;27;20052;-84
2023/07/26 06:21:33;;;;;;;0.20;0.20;;;14.30;99.90;;;;;;5081851;28;20449;-84
2023/07/26 06:23:59;;;;;;;0.15;0.15;;;14.30;99.90;;;;;;5099027;28;20076;-84
2023/07/26 06:26:25;;;;;;;0.10;0.10;;;14.30;99.90;;;;;;5088071;28;20079;-84
2023/07/26 06:28:50;;;;;;;0.10;0.10;;;14.30;99.90;;;;;;5081582;28;20089;-84
2023/07/26 06:31:16;;;;;;;0.10;0.10;;;14.30;99.90;;;;;;5089624;28;20040;-83
2023/07/26 06:33:42;;;;;;;0.20;0.20;;;14.30;99.90;;;;;;5069674;28;20041;-83
2023/07/26 06:36:08;;;;;;;0.10;0.10;;;14.30;99.90;;;;;;5081886;28;20040;-84
2023/07/26 06:38:33;;;;;;;0.20;0.20;;;14.30;99.90;;;;;;5072611;28;20044;-83
2023/07/26 06:41:00;;;;;;;0.20;0.20;;;14.40;99.90;;;;;;5082070;28;20447;-85
2023/07/26 06:43:26;;;;;;;0.10;0.10;;;14.40;99.90;;;;;;5089220;28;20400;-85
2023/07/26 06:45:52;;;;;;;0.20;0.20;;;14.50;99.90;;;;;;5089254;28;20126;-83
2023/07/26 06:48:19;;;;;;;0.10;0.10;;;14.50;99.90;;;;;;5089286;28;20044;-85
2023/07/26 06:50:45;;;;;;;0.13;0.13;;;14.60;99.90;;;;;;5082798;28;20090;-82
2023/07/26 06:53:11;;;;;;;0.20;0.20;;;14.70;99.90;;;;;;5087255;28;20658;-83
2023/07/26 06:55:38;;;;;;;0.10;0.10;;;14.80;99.90;;;;;;5092878;28;20036;-83
2023/07/26 06:58:04;;;;;;;0.10;0.10;;;14.80;99.90;;;;;;5090523;28;20040;-84
2023/07/26 07:00:30;;;;;;;0.20;0.20;;;14.90;99.90;;;;;;5087954;28;20052;-83
2023/07/26 07:03:01;;;;;;;0.10;0.10;;;15.00;99.90;;;;;;5087866;28;20051;-83
2023/07/26 07:05:28;;;;;;;0.20;0.20;;;15.00;99.90;;;;;;5091927;28;20089;-82
2023/07/26 07:07:54;;;;;;;0.13;0.13;;;15.10;99.90;;;;;;5087007;28;20089;-84
2023/07/26 07:10:20;;;;;;;0.13;0.13;;;15.10;99.90;;;;;;5087607;28;20040;-83
2023/07/26 07:12:46;;;;;;;0.10;0.10;;;15.20;99.90;;;;;;5092653;28;20131;-81
2023/07/26 07:15:13;;;;;;;0.20;0.20;;;15.20;99.90;;;;;;5091891;28;20527;-84
2023/07/26 07:17:39;;;;;;;0.10;0.10;;;15.30;99.90;;;;;;5093300;28;20138;-82
2023/07/26 07:20:07;;;;;;;0.20;0.20;;;15.30;99.90;;;;;;5085778;28;20483;-83
2023/07/26 07:22:33;;;;;;;0.17;0.17;;;15.40;99.90;;;;;;5075191;28;20389;-83
2023/07/26 07:24:59;;;;;;;0.10;0.10;;;15.40;99.90;;;;;;5092190;28;20395;-83
2023/07/26 07:27:25;;;;;;;0.20;0.20;;;15.40;99.90;;;;;;5092523;28;20056;-82
2023/07/26 07:29:50;;;;;;;0.10;0.10;;;15.40;99.90;;;;;;5091708;28;20055;-84
2023/07/26 07:32:17;;;;;;;0.20;0.20;;;15.50;99.90;;;;;;5091840;28;20047;-82
2023/07/26 07:34:43;;;;;;;0.13;0.13;;;15.40;99.90;;;;;;5091725;28;20119;-83
2023/07/26 07:37:08;;;;;;;0.10;0.10;;;15.40;99.90;;;;;;5092311;28;20545;-82
2023/07/26 07:39:35;;;;;;;0.10;0.10;;;15.50;99.90;;;;;;5091336;28;20444;-82
2023/07/26 07:42:01;;;;;;;0.10;0.10;;;15.50;99.90;;;;;;5091128;28;20503;-83
2023/07/26 07:44:30;;;;;;;0.10;0.10;;;15.50;99.90;;;;;;5092873;28;20418;-83
2023/07/26 07:46:56;;;;;;;0.20;0.20;;;15.50;99.90;;;;;;5085936;28;20384;-83
2023/07/26 07:49:23;;;;;;;0.10;0.10;;;15.60;99.90;;;;;;5091922;28;20052;-83
2023/07/26 07:51:49;;;;;;;0.10;0.10;;;15.60;99.90;;;;;;5092512;28;20040;-83
2023/07/26 07:54:14;;;;;;;0.10;0.10;;;15.60;99.90;;;;;;5092715;28;20517;-82
2023/07/26 07:56:40;;;;;;;0.10;0.10;;;15.70;99.90;;;;;;5094124;28;20075;-83
2023/07/26 07:59:06;;;;;;;0.10;0.10;;;15.80;99.90;;;;;;5091996;28;20032;-83
2023/07/26 08:01:32;;;;;;;0.20;0.20;;;15.70;99.90;;;;;;5090854;28;20097;-82
2023/07/26 08:04:02;;;;;;;0.10;0.10;;;15.80;99.90;;;;;;5086903;28;20032;-83
2023/07/26 08:06:29;;;;;;;0.10;0.10;;;15.80;99.90;;;;;;5090507;28;20050;-83
2023/07/26 08:08:55;;;;;;;0.20;0.20;;;15.70;99.90;;;;;;5090166;28;20123;-85
2023/07/26 08:11:21;;;;;;;0.17;0.17;;;15.80;99.90;;;;;;5092298;28;20036;-84
2023/07/26 08:13:47;;;;;;;0.10;0.10;;;15.70;99.90;;;;;;5086195;28;20479;-84
2023/07/26 08:16:13;;;;;;;0.10;0.10;;;15.70;99.90;;;;;;5096308;28;20062;-84
2023/07/26 08:18:38;;;;;;;0.10;0.10;;;15.70;99.90;;;;;;5090514;28;20040;-84
2023/07/26 08:21:04;;;;;;;0.17;0.17;;;15.80;99.90;;;;;;5125237;27;20094;-82
2023/07/26 08:23:31;;;;;;;0.10;0.10;;;15.70;99.90;;;;;;5091684;28;20055;-83
2023/07/26 08:26:05;;;;;;;0.10;0.10;;;15.80;99.90;;;;;;5086409;28;20070;-84
2023/07/26 08:28:32;;;;;;;0.10;0.10;;;15.70;99.90;;;;;;5071182;28;20083;-84
2023/07/26 08:30:58;;;;;;;0.13;0.13;;;15.80;99.90;;;;;;5074901;28;20507;-84
2023/07/26 08:33:24;;;;;;;0.17;0.17;;;15.80;99.90;;;;;;5097918;27;20089;-82
2023/07/26 08:35:50;;;;;;;0.10;0.10;;;15.80;99.90;;;;;;5087486;28;20044;-83
2023/07/26 08:38:17;;;;;;;0.10;0.10;;;15.90;99.90;;;;;;5088506;28;20040;-83
2023/07/26 08:40:48;;;;;;;0.20;0.20;;;16.00;99.90;;;;;;5090166;28;20040;-82
2023/07/26 08:43:17;;;;;;;0.17;0.17;;;16.10;99.90;;;;;;5086502;28;20399;-83
2023/07/26 08:45:43;;;;;;;0.10;0.10;;;16.10;99.90;;;;;;5094512;28;20040;-82
2023/07/26 08:48:09;;;;;;;0.10;0.10;;;16.20;99.90;;;;;;5079320;28;20112;-82
2023/07/26 08:50:38;;;;;;;0.20;0.20;;;16.30;99.90;;;;;;5077735;28;20039;-84
2023/07/26 08:53:08;;;;;;;0.20;0.20;;;16.40;99.90;;;;;;5077474;28;20047;-82
2023/07/26 08:55:35;;;;;;;0.20;0.20;;;16.50;99.90;;;;;;5077345;28;20445;-84
2023/07/26 08:58:02;;;;;;;0.10;0.10;;;16.50;99.90;;;;;;5075028;28;20127;-84
2023/07/26 09:00:29;;;;;;;0.10;0.10;;;16.60;99.90;;;;;;5083305;28;20061;-83
2023/07/26 09:02:59;;;;;;;0.10;0.10;;;16.70;99.90;;;;;;5109458;27;20055;-82
2023/07/26 09:05:25;;;;;;;0.20;0.20;;;16.70;99.90;;;;;;5089661;28;20199;-81
2023/07/26 09:07:51;;;;;;;0.20;0.20;;;16.80;99.90;;;;;;5081580;28;20073;-81
2023/07/26 09:10:31;;;;;;;0.10;0.10;;;16.80;99.90;;;;;;5108956;27;20086;-82
2023/07/26 09:13:13;;;;;;;0.17;0.17;;;16.80;99.90;;;;;;5073640;28;20055;-84
2023/07/26 09:15:40;;;;;;;0.10;0.10;;;16.80;99.90;;;;;;5088027;28;20051;-82
2023/07/26 09:18:06;;;;;;;0.10;0.10;;;16.80;99.90;;;;;;5083349;28;20368;-83
2023/07/26 09:20:33;;;;;;;0.20;0.20;;;16.90;99.90;;;;;;5091632;28;20249;-83
2023/07/26 09:23:03;;;;;;;0.10;0.10;;;16.90;99.90;;;;;;5081804;28;20051;-82
2023/07/26 09:25:40;;;;;;;0.10;0.10;;;17.00;99.90;;;;;;5081630;28;20044;-81
2023/07/26 09:28:08;;;;;;;0.15;0.15;;;17.00;99.90;;;;;;5087328;28;20052;-83
2023/07/26 09:30:39;;;;;;;0.17;0.17;;;17.10;99.90;;;;;;5114096;27;20081;-83
2023/07/26 09:33:06;;;;;;;0.10;0.10;;;17.20;99.90;;;;;;5079647;28;20110;-85
2023/07/26 09:35:41;;;;;;;0.20;0.20;;;17.30;99.90;;;;;;5091401;28;20044;-82
2023/07/26 09:38:12;;;;;;;0.10;0.10;;;17.30;99.90;;;;;;5088187;28;20094;-82
2023/07/26 09:40:38;;;;;;;0.20;0.20;;;17.40;99.90;;;;;;5102723;28;20059;-80
2023/07/26 09:43:04;;;;;;;0.10;0.10;;;17.40;99.90;;;;;;5072549;28;20040;-82
2023/07/26 09:45:31;;;;;;;0.20;0.20;;;17.50;99.90;;;;;;5083368;28;20085;-80
2023/07/26 09:48:07;;;;;;;0.10;0.10;;;17.50;99.90;;;;;;5078638;28;20040;-81
2023/07/26 09:50:35;;;;;;;0.13;0.13;;;17.50;99.90;;;;;;5097822;27;20048;-80
2023/07/26 09:53:03;;;;;;;0.10;0.10;;;17.60;99.90;;;;;;5075958;28;20052;-81
2023/07/26 09:55:28;;;;;;;0.10;0.10;;;17.60;99.90;;;;;;5074730;28;20048;-80
2023/07/26 09:57:56;;;;;;;0.20;0.20;;;17.60;99.90;;;;;;5079780;28;20081;-81
2023/07/26 10:00:24;;;;;;;0.20;0.20;;;17.70;99.90;;;;;;5083539;28;20466;-80
2023/07/26 10:03:01;;;;;;;0.15;0.15;;;17.70;99.90;;;;;;5085593;28;20135;-81
2023/07/26 10:05:28;;;;;;;0.20;0.20;;;17.90;99.90;;;;;;5084248;28;20126;-81
2023/07/26 10:07:55;;;;;;;0.20;0.20;;;18.00;99.90;;;;;;5086281;28;20040;-81
2023/07/26 10:10:22;;;;;;;0.20;0.20;;;18.10;99.90;;;;;;5070939;28;20045;-81
2023/07/26 10:12:52;;;;;;;0.10;0.10;;;18.10;99.90;;;;;;5073093;28;20043;-80
2023/07/26 10:15:21;;;;;;;0.10;0.10;;;18.10;99.90;;;;;;5089639;28;20048;-81
2023/07/26 10:17:47;;;;;;;0.20;0.20;;;18.10;99.90;;;;;;5087396;28;20043;-82
2023/07/26 10:20:14;;;;;;;0.20;0.20;;;18.10;99.90;;;;;;5087215;28;20097;-81
2023/07/26 10:22:42;;;;;;;0.10;0.10;;;18.10;99.90;;;;;;5075198;28;20071;-81
2023/07/26 10:25:08;;;;;;;0.20;0.20;;;18.00;99.90;;;;;;5116727;27;20094;-81
2023/07/26 10:27:35;;;;;;;0.17;0.17;;;18.00;99.90;;;;;;5086921;28;20089;-82
2023/07/26 10:30:02;;;;;;;0.35;0.35;;;17.90;99.90;;;;;;5087463;28;20048;-81
2023/07/26 10:32:28;;;;;;;0.10;0.10;;;17.80;99.90;;;;;;5108727;27;20101;-82
2023/07/26 10:34:58;;;;;;;0.13;0.13;;;17.70;99.90;;;;;;5074944;28;20475;-80
2023/07/26 10:37:33;;;;;;;0.20;0.20;;;17.70;99.90;;;;;;5085579;28;20036;-81
2023/07/26 10:39:59;;;;;;;0.13;0.13;;;17.60;99.90;;;;;;5080073;28;20542;-81
2023/07/26 10:42:29;;;;;;;0.10;0.10;;;17.60;99.90;;;;;;5087781;28;20048;-82
2023/07/26 10:45:01;;;;;;;0.10;0.10;;;17.70;99.90;;;;;;5086409;28;20044;-81
2023/07/26 10:47:27;;;;;;;0.15;0.15;;;17.70;99.90;;;;;;5102982;28;20492;-81
2023/07/26 10:50:03;;;;;;;0.20;0.20;;;17.80;99.90;;;;;;5082154;28;20059;-81
2023/07/26 10:52:36;;;;;;;0.20;0.20;;;17.80;99.90;;;;;;5072662;28;20044;-81
2023/07/26 10:55:26;;;;;;;0.20;0.20;;;17.80;99.90;;;;;;5068127;28;20380;-80
2023/07/26 10:57:52;;;;;;;0.20;0.20;;;17.70;99.90;;;;;;5092986;28;20119;-80
2023/07/26 11:00:31;;;;;;;0.20;0.20;;;17.70;99.90;;;;;;5068006;28;20133;-82
2023/07/26 11:03:01;;;;;;;0.20;0.20;;;17.60;99.90;;;;;;5087194;28;20126;-83
2023/07/26 11:05:29;;;;;;;0.20;0.20;;;17.60;99.90;;;;;;5089566;28;20048;-83
2023/07/26 11:08:06;;;;;;;0.20;0.20;;;17.40;99.90;;;;;;5073848;28;20451;-85
2023/07/26 11:10:34;;;;;;;0.20;0.20;;;17.30;99.90;;;;;;5069552;28;20052;-84
2023/07/26 11:13:13;;;;;;;0.20;0.20;;;17.10;99.90;;;;;;5078436;28;20048;-84
2023/07/26 11:15:41;;;;;;;0.10;0.10;;;17.00;99.90;;;;;;5079263;28;20055;-85
2023/07/26 11:18:07;;;;;;;0.10;0.10;;;17.00;99.90;;;;;;5084741;28;20200;-90
2023/07/26 11:20:36;;;;;;;0.20;0.20;;;16.60;99.90;;;;;;5092519;28;20491;-91
2023/07/26 11:23:34;;;;;;;0.20;0.20;;;16.50;99.90;;;;;;5086734;28;20051;-91
2023/07/26 11:26:01;;;;;;;0.15;0.15;;;16.40;99.90;;;;;;5085919;28;20057;-88
2023/07/26 11:28:33;;;;;;;0.10;0.10;;;16.20;99.90;;;;;;5071330;28;20124;-87
2023/07/26 11:31:00;;;;;;;0.10;0.10;;;16.10;99.90;;;;;;5074106;28;20043;-87
2023/07/26 11:33:33;;;;;;;0.17;0.17;;;16.00;99.90;;;;;;5090570;28;20048;-88
2023/07/26 11:36:01;;;;;;;0.20;0.20;;;15.90;99.90;;;;;;5090592;28;20036;-90
2023/07/26 11:38:27;;;;;;;0.10;0.10;;;15.80;99.90;;;;;;5124977;28;20051;-88
2023/07/26 11:40:55;;;;;;;0.20;0.20;;;15.70;99.90;;;;;;5084721;28;20514;-86
2023/07/26 11:43:28;;;;;;;0.20;0.20;;;15.70;99.90;;;;;;5083700;28;20056;-86
2023/07/26 11:45:55;;;;;;;0.10;0.10;;;15.70;99.90;;;;;;5092313;28;20040;-84
2023/07/26 11:48:21;;;;;;;0.10;0.10;;;15.70;99.90;;;;;;5077007;28;20052;-84
2023/07/26 11:50:48;;;;;;;0.20;0.20;;;15.80;99.90;;;;;;5072709;28;20078;-83
2023/07/26 11:53:15;;;;;;;0.10;0.10;;;15.80;99.90;;;;;;5083057;28;20055;-84
2023/07/26 11:55:43;;;;;;;0.10;0.10;;;16.00;99.90;;;;;;5091778;28;20040;-83
2023/07/26 11:58:12;;;;;;;0.10;0.10;;;16.20;99.90;;;;;;5090179;28;20487;-84
2023/07/26 12:00:46;;;;;;;0.20;0.20;;;16.40;99.90;;;;;;5124309;27;20424;-83
2023/07/26 12:03:12;;;;;;;0.10;0.10;;;16.50;99.90;;;;;;5073509;28;20476;-83
2023/07/26 12:05:42;;;;;;;0.10;0.10;;;16.70;99.90;;;;;;5071892;28;20045;-84
2023/07/26 12:08:08;;;;;;;0.20;0.20;;;16.90;99.90;;;;;;5089533;28;20051;-85
2023/07/26 12:10:39;;;;;;;0.20;0.20;;;17.10;99.90;;;;;;5091257;28;20047;-84
2023/07/26 12:13:09;;;;;;;0.20;0.20;;;17.30;99.90;;;;;;5090831;28;20375;-85
2023/07/26 12:16:03;;;;;;;0.20;0.20;;;17.50;99.90;;;;;;5090264;28;20117;-83
2023/07/26 12:18:29;;;;;;;0.20;0.20;;;17.60;99.90;;;;;;5089832;28;20052;-84
2023/07/26 12:21:22;;;;;;;0.13;0.13;;;17.80;99.90;;;;;;5088283;28;20435;-85
2023/07/26 12:24:04;;;;;;;0.10;0.10;;;18.00;99.90;;;;;;5113564;27;20381;-84
2023/07/26 12:26:34;;;;;;;0.20;0.20;;;18.20;99.90;;;;;;5114734;27;20036;-83
2023/07/26 12:29:02;;;;;;;0.20;0.20;;;18.40;99.90;;;;;;5124455;27;20383;-84
2023/07/26 12:31:30;;;;;;;0.20;0.20;;;18.50;99.90;;;;;;5084413;28;20054;-85
2023/07/26 12:34:05;;;;;;;0.10;0.10;;;18.50;99.90;;;;;;5090479;28;20614;-83
2023/07/26 12:36:36;;;;;;;0.10;0.10;;;18.40;99.90;;;;;;5089940;28;20047;-85
2023/07/26 12:39:07;;;;;;;0.20;0.20;;;18.40;99.90;;;;;;5090718;28;20135;-86
2023/07/26 12:41:33;;;;;;;0.20;0.20;;;18.30;99.90;;;;;;5106734;27;20052;-86
2023/07/26 12:43:59;;;;;;;0.20;0.20;;;18.20;99.90;;;;;;5070441;28;20063;-87
2023/07/26 12:46:25;;;;;;;0.20;0.20;;;18.10;99.90;;;;;;5106828;27;20040;-88
2023/07/26 12:48:55;;;;;;;0.10;0.10;;;18.10;99.90;;;;;;5085027;28;20042;-86